Reno, NV (89501)

4:17 PM PST on February 06, 2016 (GMT -0800)
UNR Campus, LMR Roof | | Change Station
CLOSE
Current Station
Personal Weather Station
Location: Reno, NV
Elevation: 4570 ft
Nearby Weather Stations

Elev 4570 ft 39.54 °N, 119.81 °W | Updated 1 minute ago

Mostly Cloudy
Mostly Cloudy
54.5 °F
Feels Like 54.5 °F
N
0.0
Wind Variable Wind from SE

Today
High -- | Low -- °F
--% Chance of Precip.
Yesterday
High -- | Low -- °F
Precip. -- in
Pressure 30.40 in
Visibility 10.0 miles
Clouds Few 19000 ft
Mostly Cloudy 24000 ft
Dew Point 27 °F
Humidity 34%
Rainfall 0.00 in
Snow Depth Not available.
7:02 AM 5:24 PM
Waning Crescent, 3% visible
METAR KRNO 062355Z 16003KT 10SM FEW190 BKN240 11/M03 A3040 RMK AO2 SLP294 T01111028 10111 20039 56008
Pressure 30.40 in
Visibility 10.0 miles
Clouds Few 19000 ft
Mostly Cloudy 24000 ft
Dew Point 27 °F
Humidity 34%
Rainfall 0.00 in
Snow Depth Not available.
7:02 AM 5:24 PM
Waning Crescent, 3% visible
METAR KRNO 062355Z 16003KT 10SM FEW190 BKN240 11/M03 A3040 RMK AO2 SLP294 T01111028 10111 20039 56008

10-Day Weather Forecast

Almanac

Astronomy

Feb. 06, 2016 Rise Set
Actual Time
Civil Twilight
Nautical Twilight
Astronomical Twilight
Moon
Length of Visible Light
Length of Day
Tomorrow will be .
, % of the Moon is Illuminated

Today's Extremes

State Highs State Lows

Community

WunderPhotos

Upload Photos

1,891,105 photos uploaded!

WunderBlog® & News

Nearby

Air Quality

  Air Quality AQ Index Pollutant
Not available.

Snow Depth

Station Depth Elevation

Earthquake Activity

City Distance Mag. Time & Date
Minimum magnitude displayed is 2.5.

Coastal Water Temperatures

Place Temperature

Stations

Nearby Weather Stations

Station Location Temp. Windchill Dew Point Humidity Wind Precip. Elev Updated Type
                   

Watches & Warnings

There are currently no watches in effect.